Accueil
METAR-TAF:

METAR-TAF

Aéroports :

Logroño, Espagne

latitude: 42-27N, longitude: 002-20W, altitude: 353 m

Observation

Le bulletin a été fait il y a 49 minutes, à 18:00 UTC
Vent 3 kt de sud/sud-est
Température 19°C
Humidité 68%
Pression 1016 hPa
Visibilité 10 km ou plus
Quelques nuages à une hauteur de 5000 ft
Nuages épars à une hauteur de 7000 ft
pluie faible

METAR: LELO 171800Z 16003KT 9999 -RA FEW050 SCT070 19/13 Q1016

Heure: 20:49 (18:49 UTC)

Prévision

Le bulletin a été fait il y a 1 heure et 49 minutes, à 17:00 UTC
Prévision valable du 17 à 18 UTC au 18 à 03 UTC
Vent 8 kt de est/sud-est
Visibilité 10 km ou plus
Quelques nuages à une hauteur de 5000 ft
Probabilité 40% :
Temporairement
du 17 à 18 UTC au 18 à 03 UTC
Nuages fragmentés à une hauteur de 1400 ft
pluie

TAF: LELO 171700Z 1718/1803 12008KT 9999 FEW050 PROB40 TEMPO 1718/1803 RA BKN014

Observations et prévisions météorologiques de plus de 4000 aéroports (messages METAR et TAF).

Les stations disponibles sont représentées par des disques jaunes et rouges sur la carte.

Passer la souris dessus pour voir le nom de la station.

Cliquer dessus pour voir les observations et prévisions météorologiques.

Pour changer de carte: cliquez sur les boutons verts avec une croix noire pour zoomer, sur le bouton vert avec un tiret pour effectuer un zoom arrière, ou sur les flèches vertes pour les cartes adjacentes.


METAR-TAF: